Ora Direzione Vento Velocita' Vento Media Vento Raffica Max. Temperatura Wind Chill Pioggia Pressione
20:44:53.0351 °(N)1.2 Kts0.83 Kts11.1 Kts21.7 °C23.51 °C0.0 mm1018.6 Hpa
20:24:38.00 °(N)0.0 Kts0.0 Kts11.1 Kts22.7 °C27.22 °C0.0 mm1018.2 Hpa
20:04:22.00 °(N)0.0 Kts0.0 Kts11.1 Kts26.6 °C29.65 °C0.0 mm1017.8 Hpa
19:44:06.0342 °(NNW)0.4 Kts1.5 Kts11.1 Kts25.2 °C27.46 °C0.0 mm1019.0 Hpa
19:24:50.0250 °(WSW)7.4 Kts6.73 Kts11.1 Kts25.3 °C26.84 °C0.0 mm1018.6 Hpa
19:04:28.0233 °(SW)5.1 Kts5.86 Kts11.1 Kts25.7 °C27.43 °C0.0 mm1019.8 Hpa
18:44:07.0260 °(W)6.9 Kts6.36 Kts11.1 Kts26.0 °C27.69 °C0.0 mm1017.7 Hpa
18:24:50.0232 °(SW)9.8 Kts8.5 Kts11.1 Kts25.3 °C26.73 °C0.0 mm1017.3 Hpa
18:04:31.0237 °(WSW)9.1 Kts8.8 Kts11.0 Kts25.2 °C26.63 °C0.0 mm1017.7 Hpa
17:44:11.0228 °(SW)5.7 Kts8.23 Kts10.7 Kts26.2 °C27.99 °C0.0 mm1022.4 Hpa
17:23:51.0219 °(SW)8.0 Kts8.83 Kts10.7 Kts26.3 °C28.03 °C0.0 mm1017.8 Hpa
17:04:33.0207 °(SSW)7.2 Kts6.93 Kts9.6 Kts26.7 °C28.54 °C0.0 mm1019.5 Hpa
16:44:13.0220 °(SW)7.2 Kts8.46 Kts9.6 Kts26.1 °C27.81 °C0.0 mm1021.2 Hpa
16:23:48.0247 °(WSW)8.6 Kts8.2 Kts9.0 Kts26.0 °C27.63 °C0.0 mm1018.7 Hpa
16:04:34.0239 °(WSW)6.6 Kts6.83 Kts8.0 Kts26.7 °C28.54 °C0.0 mm1018.7 Hpa
15:44:24.0235 °(SW)5.8 Kts5.43 Kts8.0 Kts27.2 °C29.18 °C0.0 mm1019.5 Hpa
15:24:09.0224 °(SW)4.3 Kts4.46 Kts8.0 Kts27.5 °C29.56 °C0.0 mm1020.3 Hpa
15:04:50.0213 °(SSW)4.0 Kts4.43 Kts8.0 Kts27.3 °C29.34 °C0.0 mm1020.3 Hpa
14:43:49.0196 °(SSW)5.7 Kts6.0 Kts8.0 Kts26.7 °C28.58 °C0.0 mm1020.3 Hpa
14:23:54.0223 °(SW)5.3 Kts5.26 Kts8.0 Kts26.3 °C28.12 °C0.0 mm1018.7 Hpa